Monday, December 18, 2017, 11:33 AM EST
Back to Local

KSEG, Selinsgrove Penn Valley Airport

Location: Selinsgrove, PA, United States Lat: 40.817
Local Time: 11:33 AM EST (16:33 GMT) Lon: -76.867
Time Zone: US/Eastern Elev: 449 ft

Show me the last for .
Show Decoded

2017-12-18 10:53 METAR KSEG 181553Z AUTO 20007KT 5SM HZ FEW044 OVC065 04/00 A3008 RMK AO2 SLP189
                 T00440000 =
2017-12-18 09:53 METAR KSEG 181453Z AUTO 18004KT 4SM HZ FEW042 OVC070 03/00 A3010 RMK AO2 SLP197
                 T00280000 55003 =
2017-12-18 08:53 METAR KSEG 181353Z AUTO 00000KT 5SM BR OVC070 01/M01 A3010 RMK AO2 SLP197
                 T00111006 =
2017-12-18 07:53 METAR KSEG 181253Z AUTO 00000KT 4SM BR OVC075 M01/M01 A3011 RMK AO2 SLP200
                 T10061011 =
2017-12-18 06:53 METAR KSEG 181153Z AUTO 00000KT 6SM BR FEW060 OVC075 00/M02 A3011 RMK AO2 SLP202
                 T00001017 10006 21006 55003 =
2017-12-18 05:53 METAR KSEG 181053Z AUTO 00000KT 6SM BR BKN050 OVC080 00/M01 A3010 RMK AO2 SLP199
                 T00001011 =
2017-12-18 04:53 METAR KSEG 180953Z AUTO 00000KT 6SM BR OVC060 00/M01 A3010 RMK AO2 SLP198
                 T00001011 =
2017-12-18 03:53 METAR KSEG 180853Z AUTO 00000KT 6SM BR FEW036 BKN070 OVC090 00/M01 A3012 RMK AO2
                 SLP205 T00001011 58006 =
2017-12-18 02:53 METAR KSEG 180753Z AUTO 00000KT 7SM BKN055 OVC070 01/M01 A3013 RMK AO2 SLP208
                 T00061011 =
2017-12-18 01:53 METAR KSEG 180653Z AUTO 00000KT 7SM OVC050 01/M01 A3014 RMK AO2 SLP210 T00061011
                 =
2017-12-18 00:53 METAR KSEG 180553Z AUTO 00000KT 7SM OVC050 01/M02 A3014 RMK AO2 SLP211 T00061017
                 10006 21006 58009 =
2017-12-17 23:53 METAR KSEG 180453Z AUTO 00000KT 7SM OVC050 00/M02 A3016 RMK AO2 SLP217 T00001017
                 400281011 =
2017-12-17 22:53 METAR KSEG 180353Z AUTO 35003KT 7SM OVC060 00/M02 A3016 RMK AO2 SLP217 T00001017
                 =
2017-12-17 21:53 METAR KSEG 180253Z AUTO 00000KT 7SM OVC085 00/M01 A3017 RMK AO2 SLP220 T00001011
                 58014 =
2017-12-17 20:53 METAR KSEG 180153Z AUTO 00000KT 8SM OVC100 00/M02 A3019 RMK AO2 SLP227 T00001017
                 =
2017-12-17 19:53 METAR KSEG 180053Z AUTO 00000KT 8SM BKN110 00/M02 A3020 RMK AO2 SLP231 T00001017
                 =
2017-12-17 18:53 METAR KSEG 172353Z AUTO 00000KT 9SM CLR 01/M02 A3021 RMK AO2 SLP234 T00061022
                 10028 20000 51008 =
2017-12-17 17:53 METAR KSEG 172253Z AUTO 00000KT 9SM CLR 00/M02 A3020 RMK AO2 SLP233 T00001017 =
2017-12-17 16:53 METAR KSEG 172153Z AUTO 00000KT 9SM CLR 02/M02 A3019 RMK AO2 SLP229 T00171017 =
2017-12-17 15:53 METAR KSEG 172053Z AUTO 00000KT 10SM CLR 02/M02 A3018 RMK AO2 SLP226 T00221017
                 57011 =
2017-12-17 14:53 METAR KSEG 171953Z AUTO 00000KT 10SM CLR 03/M02 A3019 RMK AO2 SLP228 T00281017 =
2017-12-17 13:53 METAR KSEG 171853Z AUTO 00000KT 10SM CLR 02/M02 A3020 RMK AO2 SLP233 T00221022 =
2017-12-17 12:53 METAR KSEG 171753Z AUTO 00000KT 10SM CLR 02/M03 A3022 RMK AO2 SLP237 T00171028
                 10017 21006 58014 =
2017-12-17 11:53 METAR KSEG 171653Z AUTO 00000KT 10SM CLR 02/M03 A3026 RMK AO2 SLP252 T00171028 =

Support USWX by starting your Amazon purchase here.